Alkol, WV

7:42 PM EDT on October 31, 2014 (GMT -0400)
Trace Creek | Change Station
CLOSE
Current Station
Personal Weather Station
Location: Hamlin, WV
Elevation: 713 ft
Nearby Weather Stations

Elev 713 ft 38.26 °N, 82.08 °W | Updated 32 seconds ago

Rain
Rain
43.8 °F
Feels Like 44 °F
N
0.0
Wind Variable Wind from NE
Gusts 0.0 mph

Today
High -- | Low -- °F
--% Chance of Precip.
Yesterday
High -- | Low -- °F
Precip. -- in
7:52 AM 6:29 PM
First Quarter, 60% visible
Pressure 29.88 in
Visibility 4.0 miles
Clouds Mostly Cloudy 1300 ft
Overcast 2500 ft
Windchill 44 °F
Dew Point 42 °F
Humidity 95%
Rainfall 0.07 in
Snow Depth Not available.
UV 0 out of 12
Pollen .10 out of 12
Air Quality Not available.
Flu Activity Not available.
METAR KCRW 312254Z 27004KT 4SM -RA BR BKN013 OVC025 06/04 A2987 RMK AO2 SLP119 VLY FG P0006 T00610044

More Conditions Fewer Conditions

Pressure 29.88 in
Visibility 4.0 miles
Clouds Mostly Cloudy 1300 ft
Overcast 2500 ft
Windchill 44 °F
Dew Point 42 °F
Humidity 95%
Rainfall 0.07 in
Snow Depth Not available.
UV 0 out of 12
Pollen .10 out of 12
Air Quality Not available.
Flu Activity Not available.
METAR KCRW 312254Z 27004KT 4SM -RA BR BKN013 OVC025 06/04 A2987 RMK AO2 SLP119 VLY FG P0006 T00610044

More Conditions Fewer Conditions

10-Day Weather Forecast

Almanac

Astronomy

Oct. 31, 2014 Rise Set
Actual Time
Civil Twilight
Nautical Twilight
Astronomical Twilight
Moon
Length of Visible Light
Length of Day
Tomorrow will be .
, % of the Moon is Illuminated

Today's Extremes

State Highs State Lows

Community

WunderPhotos

Upload Photos

1,766,786 photos uploaded!

WunderBlogs® & News

Nearby

Air Quality

  Air Quality AQ Index Pollutant
Not available.

Snow Depth

Station Depth Elevation

Earthquake Activity

City Distance Mag. Time & Date
Minimum magnitude displayed is 2.5.

Coastal Water Temperatures

Place Temperature

Nearby Weather Stations